sensor_id;sensor_type;location;lat;lon;timestamp;pressure;altitude;pressure_sealevel;temperature;humidity
44457;BME280;30159;49.316;8.558;2023-03-03T00:00:53;100733.63;;;2.83;100.00
44457;BME280;30159;49.316;8.558;2023-03-03T00:03:21;100714.06;;;2.70;100.00
44457;BME280;30159;49.316;8.558;2023-03-03T00:05:50;100723.63;;;2.78;100.00
44457;BME280;30159;49.316;8.558;2023-03-03T00:08:17;100724.03;;;2.75;100.00
44457;BME280;30159;49.316;8.558;2023-03-03T00:10:45;100732.63;;;2.77;100.00
44457;BME280;30159;49.316;8.558;2023-03-03T00:13:14;100693.00;;;2.44;100.00
44457;BME280;30159;49.316;8.558;2023-03-03T00:15:41;100731.91;;;2.88;100.00
44457;BME280;30159;49.316;8.558;2023-03-03T00:18:17;100733.91;;;2.93;100.00
44457;BME280;30159;49.316;8.558;2023-03-03T00:20:50;100725.31;;;2.91;100.00
44457;BME280;30159;49.316;8.558;2023-03-03T00:23:30;100729.25;;;2.88;100.00
44457;BME280;30159;49.316;8.558;2023-03-03T00:26:00;100735.22;;;2.84;100.00
44457;BME280;30159;49.316;8.558;2023-03-03T00:28:28;100738.94;;;2.83;100.00
44457;BME280;30159;49.316;8.558;2023-03-03T00:30:57;100734.88;;;2.80;100.00
44457;BME280;30159;49.316;8.558;2023-03-03T00:33:28;100742.47;;;2.77;100.00
44457;BME280;30159;49.316;8.558;2023-03-03T00:36:05;100749.72;;;2.69;100.00
44457;BME280;30159;49.316;8.558;2023-03-03T00:38:35;100737.25;;;2.63;100.00
44457;BME280;30159;49.316;8.558;2023-03-03T00:41:03;100740.81;;;2.57;100.00
44457;BME280;30159;49.316;8.558;2023-03-03T00:43:36;100741.22;;;2.54;100.00
44457;BME280;30159;49.316;8.558;2023-03-03T00:46:03;100736.72;;;2.55;100.00
44457;BME280;30159;49.316;8.558;2023-03-03T00:48:40;100743.47;;;2.57;100.00
44457;BME280;30159;49.316;8.558;2023-03-03T00:51:18;100743.63;;;2.62;100.00
44457;BME280;30159;49.316;8.558;2023-03-03T00:53:47;100744.16;;;2.71;100.00
44457;BME280;30159;49.316;8.558;2023-03-03T00:56:14;100752.53;;;2.74;100.00
44457;BME280;30159;49.316;8.558;2023-03-03T00:58:40;100749.88;;;2.74;100.00
44457;BME280;30159;49.316;8.558;2023-03-03T01:01:08;100751.34;;;2.70;100.00
44457;BME280;30159;49.316;8.558;2023-03-03T01:03:35;100747.69;;;2.65;100.00
44457;BME280;30159;49.316;8.558;2023-03-03T01:06:01;100751.00;;;2.60;100.00
44457;BME280;30159;49.316;8.558;2023-03-03T01:08:29;100748.44;;;2.47;100.00
44457;BME280;30159;49.316;8.558;2023-03-03T01:10:57;100744.22;;;2.39;100.00
44457;BME280;30159;49.316;8.558;2023-03-03T01:13:27;100721.59;;;1.98;100.00
44457;BME280;30159;49.316;8.558;2023-03-03T01:15:55;100740.69;;;2.20;100.00
44457;BME280;30159;49.316;8.558;2023-03-03T01:18:22;100734.09;;;2.23;100.00
44457;BME280;30159;49.316;8.558;2023-03-03T01:20:48;100741.06;;;2.24;100.00
44457;BME280;30159;49.316;8.558;2023-03-03T01:23:15;100741.13;;;2.17;100.00
44457;BME280;30159;49.316;8.558;2023-03-03T01:25:43;100747.69;;;2.15;100.00
44457;BME280;30159;49.316;8.558;2023-03-03T01:28:09;100739.91;;;2.13;100.00
44457;BME280;30159;49.316;8.558;2023-03-03T01:30:36;100743.78;;;2.17;100.00
44457;BME280;30159;49.316;8.558;2023-03-03T01:33:03;100748.69;;;2.14;100.00
44457;BME280;30159;49.316;8.558;2023-03-03T01:35:29;100750.78;;;2.05;100.00
44457;BME280;30159;49.316;8.558;2023-03-03T01:37:57;100753.53;;;1.92;100.00
44457;BME280;30159;49.316;8.558;2023-03-03T01:40:26;100744.34;;;1.87;100.00
44457;BME280;30159;49.316;8.558;2023-03-03T01:42:54;100593.75;;;0.91;100.00
44457;BME280;30159;49.316;8.558;2023-03-03T01:45:23;100741.72;;;1.81;100.00
44457;BME280;30159;49.316;8.558;2023-03-03T01:47:53;100737.19;;;1.88;100.00
44457;BME280;30159;49.316;8.558;2023-03-03T01:50:29;100743.09;;;1.90;100.00
44457;BME280;30159;49.316;8.558;2023-03-03T01:52:59;100743.31;;;1.88;100.00
44457;BME280;30159;49.316;8.558;2023-03-03T01:55:29;100692.19;;;1.48;100.00
44457;BME280;30159;49.316;8.558;2023-03-03T01:58:02;100741.72;;;1.81;100.00
44457;BME280;30159;49.316;8.558;2023-03-03T02:00:35;100739.97;;;1.68;100.00
44457;BME280;30159;49.316;8.558;2023-03-03T02:03:03;100744.69;;;1.66;100.00
44457;BME280;30159;49.316;8.558;2023-03-03T02:05:30;100756.94;;;1.67;100.00
44457;BME280;30159;49.316;8.558;2023-03-03T02:07:57;100746.75;;;1.57;100.00
44457;BME280;30159;49.316;8.558;2023-03-03T02:10:24;100743.50;;;1.48;100.00
44457;BME280;30159;49.316;8.558;2023-03-03T02:12:53;100746.41;;;1.47;100.00
44457;BME280;30159;49.316;8.558;2023-03-03T02:15:26;100745.34;;;1.48;100.00
44457;BME280;30159;49.316;8.558;2023-03-03T02:17:55;100753.75;;;1.45;100.00
44457;BME280;30159;49.316;8.558;2023-03-03T02:20:31;100739.47;;;1.33;100.00
44457;BME280;30159;49.316;8.558;2023-03-03T02:23:05;100746.47;;;1.20;100.00
44457;BME280;30159;49.316;8.558;2023-03-03T02:25:38;100745.22;;;1.23;100.00
44457;BME280;30159;49.316;8.558;2023-03-03T02:28:08;100750.34;;;1.24;100.00
44457;BME280;30159;49.316;8.558;2023-03-03T02:30:36;100589.63;;;0.30;100.00
44457;BME280;30159;49.316;8.558;2023-03-03T02:33:04;100739.09;;;1.29;100.00
44457;BME280;30159;49.316;8.558;2023-03-03T02:35:32;100694.66;;;0.91;100.00
44457;BME280;30159;49.316;8.558;2023-03-03T02:38:11;100742.75;;;1.28;100.00
44457;BME280;30159;49.316;8.558;2023-03-03T02:40:43;100705.47;;;0.96;100.00
44457;BME280;30159;49.316;8.558;2023-03-03T02:43:15;100738.13;;;1.10;100.00
44457;BME280;30159;49.316;8.558;2023-03-03T02:45:43;100742.22;;;1.06;100.00
44457;BME280;30159;49.316;8.558;2023-03-03T02:48:10;100738.34;;;0.95;100.00
44457;BME280;30159;49.316;8.558;2023-03-03T02:50:36;100732.66;;;0.85;100.00
44457;BME280;30159;49.316;8.558;2023-03-03T02:53:03;100739.59;;;0.86;100.00
44457;BME280;30159;49.316;8.558;2023-03-03T02:55:29;100739.81;;;0.84;100.00
44457;BME280;30159;49.316;8.558;2023-03-03T02:57:56;100742.66;;;0.83;100.00
44457;BME280;30159;49.316;8.558;2023-03-03T03:00:24;100742.66;;;0.83;100.00
44457;BME280;30159;49.316;8.558;2023-03-03T03:02:50;100744.69;;;0.81;100.00
44457;BME280;30159;49.316;8.558;2023-03-03T03:05:17;100743.69;;;0.75;100.00
44457;BME280;30159;49.316;8.558;2023-03-03T03:07:43;100740.81;;;0.77;100.00
44457;BME280;30159;49.316;8.558;2023-03-03T03:10:10;100735.94;;;0.74;100.00
44457;BME280;30159;49.316;8.558;2023-03-03T03:12:36;100736.34;;;0.71;100.00
44457;BME280;30159;49.316;8.558;2023-03-03T03:15:03;100725.31;;;0.60;100.00
44457;BME280;30159;49.316;8.558;2023-03-03T03:17:31;100741.44;;;0.72;100.00
44457;BME280;30159;49.316;8.558;2023-03-03T03:19:58;100737.78;;;0.73;100.00
44457;BME280;30159;49.316;8.558;2023-03-03T03:22:25;100733.09;;;0.69;100.00
44457;BME280;30159;49.316;8.558;2023-03-03T03:24:51;100736.97;;;0.66;100.00
44457;BME280;30159;49.316;8.558;2023-03-03T03:27:18;100735.75;;;0.69;100.00
44457;BME280;30159;49.316;8.558;2023-03-03T03:29:44;100741.03;;;0.69;100.00
44457;BME280;30159;49.316;8.558;2023-03-03T03:32:11;100744.13;;;0.66;100.00
44457;BME280;30159;49.316;8.558;2023-03-03T03:34:39;100755.34;;;0.68;100.00
44457;BME280;30159;49.316;8.558;2023-03-03T03:37:05;100758.41;;;0.65;100.00
44457;BME280;30159;49.316;8.558;2023-03-03T03:39:34;100754.31;;;0.62;100.00
44457;BME280;30159;49.316;8.558;2023-03-03T03:42:00;100762.09;;;0.57;100.00
44457;BME280;30159;49.316;8.558;2023-03-03T03:44:27;100754.72;;;0.52;100.00
44457;BME280;30159;49.316;8.558;2023-03-03T03:46:53;100762.50;;;0.47;100.00
44457;BME280;30159;49.316;8.558;2023-03-03T03:49:20;100755.53;;;0.53;100.00
44457;BME280;30159;49.316;8.558;2023-03-03T03:51:48;100764.72;;;0.50;100.00
44457;BME280;30159;49.316;8.558;2023-03-03T03:54:14;100765.53;;;0.44;100.00
44457;BME280;30159;49.316;8.558;2023-03-03T03:56:41;100771.25;;;0.41;100.00
44457;BME280;30159;49.316;8.558;2023-03-03T03:59:07;100775.31;;;0.30;100.00
44457;BME280;30159;49.316;8.558;2023-03-03T04:01:34;100779.63;;;0.38;100.00
44457;BME280;30159;49.316;8.558;2023-03-03T04:04:00;100773.28;;;0.39;100.00
44457;BME280;30159;49.316;8.558;2023-03-03T04:06:28;100769.41;;;0.41;100.00
44457;BME280;30159;49.316;8.558;2023-03-03T04:08:56;100781.47;;;0.37;100.00
44457;BME280;30159;49.316;8.558;2023-03-03T04:11:22;100760.03;;;0.39;100.00
44457;BME280;30159;49.316;8.558;2023-03-03T04:13:49;100761.66;;;0.33;100.00
44457;BME280;30159;49.316;8.558;2023-03-03T04:16:15;100775.53;;;0.35;100.00
44457;BME280;30159;49.316;8.558;2023-03-03T04:18:42;100769.19;;;0.30;100.00
44457;BME280;30159;49.316;8.558;2023-03-03T04:21:11;100771.47;;;0.33;100.00
44457;BME280;30159;49.316;8.558;2023-03-03T04:23:37;100781.88;;;0.41;100.00
44457;BME280;30159;49.316;8.558;2023-03-03T04:26:05;100756.97;;;0.42;100.00
44457;BME280;30159;49.316;8.558;2023-03-03T04:28:32;100761.69;;;0.40;100.00
44457;BME280;30159;49.316;8.558;2023-03-03T04:30:58;100772.28;;;0.40;100.00
44457;BME280;30159;49.316;8.558;2023-03-03T04:33:25;100655.31;;;-0.32;100.00
44457;BME280;30159;49.316;8.558;2023-03-03T04:35:51;100761.88;;;0.38;100.00
44457;BME280;30159;49.316;8.558;2023-03-03T04:38:18;100766.56;;;0.36;100.00
44457;BME280;30159;49.316;8.558;2023-03-03T04:40:44;100766.53;;;0.30;100.00
44457;BME280;30159;49.316;8.558;2023-03-03T04:43:12;100768.19;;;0.31;100.00
44457;BME280;30159;49.316;8.558;2023-03-03T04:45:39;100770.63;;;0.26;100.00
44457;BME280;30159;49.316;8.558;2023-03-03T04:48:06;100775.31;;;0.24;100.00
44457;BME280;30159;49.316;8.558;2023-03-03T04:50:32;100777.75;;;0.25;100.00
44457;BME280;30159;49.316;8.558;2023-03-03T04:52:59;100778.56;;;0.26;100.00
44457;BME280;30159;49.316;8.558;2023-03-03T04:55:26;100765.69;;;0.09;100.00
44457;BME280;30159;49.316;8.558;2023-03-03T04:57:52;100784.66;;;0.06;100.00
44457;BME280;30159;49.316;8.558;2023-03-03T05:00:20;100783.84;;;0.06;100.00
44457;BME280;30159;49.316;8.558;2023-03-03T05:02:47;100780.19;;;0.00;100.00
44457;BME280;30159;49.316;8.558;2023-03-03T05:05:14;100797.28;;;-0.09;100.00
44457;BME280;30159;49.316;8.558;2023-03-03T05:07:41;100791.75;;;-0.08;100.00
44457;BME280;30159;49.316;8.558;2023-03-03T05:10:08;100784.44;;;-0.06;100.00
44457;BME280;30159;49.316;8.558;2023-03-03T05:12:35;100793.16;;;-0.12;100.00
44457;BME280;30159;49.316;8.558;2023-03-03T05:15:01;100799.69;;;-0.14;100.00
44457;BME280;30159;49.316;8.558;2023-03-03T05:17:29;100795.00;;;-0.12;100.00
44457;BME280;30159;49.316;8.558;2023-03-03T05:19:56;100787.69;;;-0.10;100.00
44457;BME280;30159;49.316;8.558;2023-03-03T05:22:22;100795.81;;;-0.12;100.00
44457;BME280;30159;49.316;8.558;2023-03-03T05:24:49;100794.81;;;-0.11;100.00
44457;BME280;30159;49.316;8.558;2023-03-03T05:27:16;100800.72;;;-0.15;100.00
44457;BME280;30159;49.316;8.558;2023-03-03T05:29:42;100808.25;;;-0.12;100.00
44457;BME280;30159;49.316;8.558;2023-03-03T05:32:09;100821.50;;;-0.12;100.00
44457;BME280;30159;49.316;8.558;2023-03-03T05:34:37;100756.97;;;-0.46;100.00
44457;BME280;30159;49.316;8.558;2023-03-03T05:37:03;100823.94;;;-0.17;100.00
44457;BME280;30159;49.316;8.558;2023-03-03T05:39:31;100825.97;;;-0.19;100.00
44457;BME280;30159;49.316;8.558;2023-03-03T05:41:58;100832.09;;;-0.19;100.00
44457;BME280;30159;49.316;8.558;2023-03-03T05:44:25;100833.72;;;-0.25;100.00
44457;BME280;30159;49.316;8.558;2023-03-03T05:46:51;100827.97;;;-0.28;100.00
44457;BME280;30159;49.316;8.558;2023-03-03T05:49:18;100825.53;;;-0.30;100.00
44457;BME280;30159;49.316;8.558;2023-03-03T05:51:46;100833.09;;;-0.27;100.00
44457;BME280;30159;49.316;8.558;2023-03-03T05:54:12;100838.13;;;-0.38;100.00
44457;BME280;30159;49.316;8.558;2023-03-03T05:56:39;100838.56;;;-0.35;100.00
44457;BME280;30159;49.316;8.558;2023-03-03T05:59:05;100836.91;;;-0.36;100.00
44457;BME280;30159;49.316;8.558;2023-03-03T06:01:32;100845.88;;;-0.37;100.00
44457;BME280;30159;49.316;8.558;2023-03-03T06:03:58;100843.47;;;-0.32;100.00
44457;BME280;30159;49.316;8.558;2023-03-03T06:06:25;100766.13;;;-0.90;100.00
44457;BME280;30159;49.316;8.558;2023-03-03T06:08:53;100851.41;;;-0.32;100.00
44457;BME280;30159;49.316;8.558;2023-03-03T06:11:20;100853.47;;;-0.27;100.00
44457;BME280;30159;49.316;8.558;2023-03-03T06:13:46;100849.78;;;-0.26;100.00
44457;BME280;30159;49.316;8.558;2023-03-03T06:16:13;100846.72;;;-0.30;100.00
44457;BME280;30159;49.316;8.558;2023-03-03T06:18:39;100850.19;;;-0.29;100.00
44457;BME280;30159;49.316;8.558;2023-03-03T06:21:06;100868.38;;;-0.19;100.00
44457;BME280;30159;49.316;8.558;2023-03-03T06:23:32;100863.31;;;-0.14;100.00
44457;BME280;30159;49.316;8.558;2023-03-03T06:26:00;100774.44;;;-0.58;100.00
44457;BME280;30159;49.316;8.558;2023-03-03T06:28:27;100857.88;;;0.01;100.00
44457;BME280;30159;49.316;8.558;2023-03-03T06:30:54;100860.38;;;0.15;100.00
44457;BME280;30159;49.316;8.558;2023-03-03T06:33:20;100838.78;;;0.32;100.00
44457;BME280;30159;49.316;8.558;2023-03-03T06:35:48;100867.88;;;0.80;100.00
44457;BME280;30159;49.316;8.558;2023-03-03T06:38:15;100855.63;;;1.12;100.00
44457;BME280;30159;49.316;8.558;2023-03-03T06:40:41;100860.00;;;1.58;100.00
44457;BME280;30159;49.316;8.558;2023-03-03T06:43:09;100860.31;;;1.95;100.00
44457;BME280;30159;49.316;8.558;2023-03-03T06:45:36;100853.66;;;2.24;100.00
44457;BME280;30159;49.316;8.558;2023-03-03T06:48:03;100859.50;;;2.71;98.25
44457;BME280;30159;49.316;8.558;2023-03-03T06:50:29;100840.22;;;3.01;95.87
44457;BME280;30159;49.316;8.558;2023-03-03T06:53:03;100869.41;;;3.58;92.02
44457;BME280;30159;49.316;8.558;2023-03-03T06:55:30;100872.06;;;4.13;88.78
44457;BME280;30159;49.316;8.558;2023-03-03T06:57:58;100871.56;;;4.65;84.83
44457;BME280;30159;49.316;8.558;2023-03-03T07:00:27;100878.03;;;5.11;81.72
44457;BME280;30159;49.316;8.558;2023-03-03T07:02:59;100873.19;;;5.43;79.62
44457;BME280;30159;49.316;8.558;2023-03-03T07:05:27;100873.94;;;5.79;78.14
44457;BME280;30159;49.316;8.558;2023-03-03T07:07:54;100864.69;;;6.10;76.11
44457;BME280;30159;49.316;8.558;2023-03-03T07:10:23;100886.03;;;6.46;74.36
44457;BME280;30159;49.316;8.558;2023-03-03T07:12:50;100890.81;;;6.44;73.70
44457;BME280;30159;49.316;8.558;2023-03-03T07:15:19;100901.25;;;6.74;72.83
44457;BME280;30159;49.316;8.558;2023-03-03T07:17:49;100857.31;;;6.75;71.98
44457;BME280;30159;49.316;8.558;2023-03-03T07:20:20;100910.25;;;7.13;71.23
44457;BME280;30159;49.316;8.558;2023-03-03T07:22:47;100906.28;;;7.55;69.93
44457;BME280;30159;49.316;8.558;2023-03-03T07:25:29;100912.47;;;7.94;68.42
44457;BME280;30159;49.316;8.558;2023-03-03T07:27:59;100920.66;;;7.44;68.87
44457;BME280;30159;49.316;8.558;2023-03-03T07:30:28;100927.88;;;6.64;70.26
44457;BME280;30159;49.316;8.558;2023-03-03T07:32:57;100873.41;;;5.54;73.07
44457;BME280;30159;49.316;8.558;2023-03-03T07:35:36;100930.97;;;5.33;75.56
44457;BME280;30159;49.316;8.558;2023-03-03T07:38:15;100927.44;;;4.18;78.36
44457;BME280;30159;49.316;8.558;2023-03-03T07:40:46;100923.59;;;3.33;83.42
44457;BME280;30159;49.316;8.558;2023-03-03T07:43:28;100928.88;;;3.15;86.27
44457;BME280;30159;49.316;8.558;2023-03-03T07:46:00;100856.91;;;2.90;87.24
44457;BME280;30159;49.316;8.558;2023-03-03T07:48:30;100935.06;;;3.34;87.47
44457;BME280;30159;49.316;8.558;2023-03-03T07:51:04;100928.59;;;3.48;87.79
44457;BME280;30159;49.316;8.558;2023-03-03T07:53:34;100937.38;;;3.24;87.53
44457;BME280;30159;49.316;8.558;2023-03-03T07:56:10;100929.84;;;3.21;89.19
44457;BME280;30159;49.316;8.558;2023-03-03T07:58:41;100940.88;;;2.99;89.99
44457;BME280;30159;49.316;8.558;2023-03-03T08:01:30;100940.47;;;2.95;91.57
44457;BME280;30159;49.316;8.558;2023-03-03T08:04:01;100937.56;;;3.04;92.60
44457;BME280;30159;49.316;8.558;2023-03-03T08:06:41;100940.25;;;3.29;90.94
44457;BME280;30159;49.316;8.558;2023-03-03T08:09:34;100935.22;;;3.39;89.99
44457;BME280;30159;49.316;8.558;2023-03-03T08:15:13;100935.41;;;3.63;89.67
44457;BME280;30159;49.316;8.558;2023-03-03T08:17:41;100930.38;;;3.73;88.65
44457;BME280;30159;49.316;8.558;2023-03-03T08:20:35;100926.16;;;3.65;87.21
44457;BME280;30159;49.316;8.558;2023-03-03T08:23:04;100938.38;;;3.73;87.52
44457;BME280;30159;49.316;8.558;2023-03-03T08:25:30;100937.06;;;3.64;87.89
44457;BME280;30159;49.316;8.558;2023-03-03T08:27:57;100949.56;;;3.63;88.30
44457;BME280;30159;49.316;8.558;2023-03-03T08:30:23;100949.88;;;3.55;89.32
44457;BME280;30159;49.316;8.558;2023-03-03T08:32:50;100953.28;;;3.37;89.12
44457;BME280;30159;49.316;8.558;2023-03-03T08:35:16;100954.16;;;3.31;91.27
44457;BME280;30159;49.316;8.558;2023-03-03T08:37:44;100931.66;;;3.27;91.52
44457;BME280;30159;49.316;8.558;2023-03-03T08:40:11;100953.84;;;3.46;91.43
44457;BME280;30159;49.316;8.558;2023-03-03T08:42:37;100956.81;;;3.56;91.65
44457;BME280;30159;49.316;8.558;2023-03-03T08:45:04;100946.09;;;3.63;91.12
44457;BME280;30159;49.316;8.558;2023-03-03T08:47:31;100953.25;;;3.87;90.41
44457;BME280;30159;49.316;8.558;2023-03-03T08:49:57;100951.25;;;3.83;90.53
44457;BME280;30159;49.316;8.558;2023-03-03T08:52:24;100955.25;;;3.92;90.01
44457;BME280;30159;49.316;8.558;2023-03-03T08:54:52;100956.19;;;3.79;90.51
44457;BME280;30159;49.316;8.558;2023-03-03T08:57:19;100959.34;;;3.94;90.92
44457;BME280;30159;49.316;8.558;2023-03-03T08:59:45;100942.88;;;3.97;90.14
44457;BME280;30159;49.316;8.558;2023-03-03T09:02:12;100963.34;;;4.04;89.38
44457;BME280;30159;49.316;8.558;2023-03-03T09:04:39;100953.53;;;3.97;89.90
44457;BME280;30159;49.316;8.558;2023-03-03T09:07:06;100954.34;;;3.98;88.25
44457;BME280;30159;49.316;8.558;2023-03-03T09:09:32;100922.03;;;3.88;89.20
44457;BME280;30159;49.316;8.558;2023-03-03T09:12:12;100955.56;;;4.20;88.85
44457;BME280;30159;49.316;8.558;2023-03-03T09:14:40;100926.72;;;4.11;87.54
44457;BME280;30159;49.316;8.558;2023-03-03T09:17:18;100955.09;;;4.23;86.06
44457;BME280;30159;49.316;8.558;2023-03-03T09:19:45;100828.69;;;3.26;87.11
44457;BME280;30159;49.316;8.558;2023-03-03T09:22:18;100964.03;;;4.17;88.61
44457;BME280;30159;49.316;8.558;2023-03-03T09:24:46;100968.69;;;4.22;89.06
44457;BME280;30159;49.316;8.558;2023-03-03T09:27:26;100957.41;;;4.20;87.11
44457;BME280;30159;49.316;8.558;2023-03-03T09:29:53;100976.84;;;4.46;86.66
44457;BME280;30159;49.316;8.558;2023-03-03T09:32:26;100980.97;;;4.60;87.20
44457;BME280;30159;49.316;8.558;2023-03-03T09:34:55;100969.19;;;4.79;85.91
44457;BME280;30159;49.316;8.558;2023-03-03T09:37:23;100959.00;;;4.88;85.71
44457;BME280;30159;49.316;8.558;2023-03-03T09:39:53;100963.31;;;5.01;84.31
44457;BME280;30159;49.316;8.558;2023-03-03T09:42:48;100966.28;;;5.11;83.42
44457;BME280;30159;49.316;8.558;2023-03-03T09:45:32;100965.69;;;5.09;82.84
44457;BME280;30159;49.316;8.558;2023-03-03T09:51:04;100962.47;;;5.31;82.18
44457;BME280;30159;49.316;8.558;2023-03-03T09:53:46;100948.06;;;5.32;80.48
44457;BME280;30159;49.316;8.558;2023-03-03T09:56:24;100962.25;;;5.44;80.15
44457;BME280;30159;49.316;8.558;2023-03-03T09:59:05;100971.00;;;5.63;79.82
44457;BME280;30159;49.316;8.558;2023-03-03T10:05:02;100956.34;;;5.77;79.18
44457;BME280;30159;49.316;8.558;2023-03-03T10:07:38;100973.91;;;5.97;79.03
44457;BME280;30159;49.316;8.558;2023-03-03T10:10:23;100973.69;;;5.98;79.41
44457;BME280;30159;49.316;8.558;2023-03-03T10:13:00;100914.34;;;5.54;78.04
44457;BME280;30159;49.316;8.558;2023-03-03T10:15:39;100977.06;;;6.05;79.07
44457;BME280;30159;49.316;8.558;2023-03-03T10:18:17;100970.00;;;5.99;77.46
44457;BME280;30159;49.316;8.558;2023-03-03T10:20:58;100978.44;;;5.84;78.24
44457;BME280;30159;49.316;8.558;2023-03-03T10:23:40;100987.97;;;5.80;79.26
44457;BME280;30159;49.316;8.558;2023-03-03T10:26:18;100969.13;;;5.87;78.79
44457;BME280;30159;49.316;8.558;2023-03-03T10:28:59;100977.31;;;6.04;77.90
44457;BME280;30159;49.316;8.558;2023-03-03T10:31:43;100975.53;;;6.21;77.40
44457;BME280;30159;49.316;8.558;2023-03-03T10:34:24;100982.28;;;6.24;77.02
44457;BME280;30159;49.316;8.558;2023-03-03T10:36:57;100971.34;;;6.25;76.00
44457;BME280;30159;49.316;8.558;2023-03-03T10:39:38;100998.59;;;6.34;76.30
44457;BME280;30159;49.316;8.558;2023-03-03T10:42:19;100949.56;;;6.22;76.08
44457;BME280;30159;49.316;8.558;2023-03-03T10:45:00;100991.31;;;6.46;75.20
44457;BME280;30159;49.316;8.558;2023-03-03T10:47:44;100993.63;;;6.54;76.07
44457;BME280;30159;49.316;8.558;2023-03-03T10:50:18;100986.16;;;6.57;75.59
44457;BME280;30159;49.316;8.558;2023-03-03T10:52:49;100978.03;;;6.51;75.49
44457;BME280;30159;49.316;8.558;2023-03-03T10:55:34;100982.25;;;6.76;76.32
44457;BME280;30159;49.316;8.558;2023-03-03T10:58:26;100967.88;;;6.82;74.37
44457;BME280;30159;49.316;8.558;2023-03-03T11:01:03;100972.88;;;6.90;74.86
44457;BME280;30159;49.316;8.558;2023-03-03T11:03:46;100968.75;;;7.00;75.03
44457;BME280;30159;49.316;8.558;2023-03-03T11:06:22;100975.09;;;7.10;74.24
44457;BME280;30159;49.316;8.558;2023-03-03T11:08:53;100921.44;;;6.93;74.54
44457;BME280;30159;49.316;8.558;2023-03-03T11:11:28;100972.59;;;7.37;73.98
44457;BME280;30159;49.316;8.558;2023-03-03T11:14:02;100983.63;;;7.41;71.67
44457;BME280;30159;49.316;8.558;2023-03-03T11:16:40;100974.06;;;7.28;72.52
44457;BME280;30159;49.316;8.558;2023-03-03T11:19:29;100973.63;;;7.20;72.94
44457;BME280;30159;49.316;8.558;2023-03-03T11:22:07;100972.47;;;7.15;74.01
44457;BME280;30159;49.316;8.558;2023-03-03T11:24:48;100954.63;;;7.21;74.10
44457;BME280;30159;49.316;8.558;2023-03-03T11:27:28;100871.94;;;6.67;73.72
44457;BME280;30159;49.316;8.558;2023-03-03T11:30:06;100972.19;;;7.63;72.71
44457;BME280;30159;49.316;8.558;2023-03-03T11:32:41;100968.03;;;7.55;72.86
44457;BME280;30159;49.316;8.558;2023-03-03T11:35:19;100972.34;;;7.56;73.10
44457;BME280;30159;49.316;8.558;2023-03-03T11:37:56;100961.84;;;7.54;72.99
44457;BME280;30159;49.316;8.558;2023-03-03T11:40:26;100957.88;;;7.57;73.43
44457;BME280;30159;49.316;8.558;2023-03-03T11:43:00;100953.31;;;7.74;73.16
44457;BME280;30159;49.316;8.558;2023-03-03T11:45:33;100957.38;;;7.77;72.52
44457;BME280;30159;49.316;8.558;2023-03-03T11:48:10;100946.34;;;7.78;72.44
44457;BME280;30159;49.316;8.558;2023-03-03T11:50:45;100957.50;;;7.87;72.02
44457;BME280;30159;49.316;8.558;2023-03-03T11:53:28;100930.00;;;7.80;71.98
44457;BME280;30159;49.316;8.558;2023-03-03T11:56:02;100950.41;;;7.98;71.53
44457;BME280;30159;49.316;8.558;2023-03-03T11:58:38;100944.81;;;7.82;71.47
44457;BME280;30159;49.316;8.558;2023-03-03T12:01:14;100932.47;;;7.81;72.23
44457;BME280;30159;49.316;8.558;2023-03-03T12:03:48;100938.53;;;7.94;72.08
44457;BME280;30159;49.316;8.558;2023-03-03T12:06:24;100937.09;;;8.08;71.59
44457;BME280;30159;49.316;8.558;2023-03-03T12:09:06;100936.91;;;8.15;71.28
44457;BME280;30159;49.316;8.558;2023-03-03T12:11:42;100930.59;;;8.04;71.38
44457;BME280;30159;49.316;8.558;2023-03-03T12:14:19;100939.91;;;7.96;71.36
44457;BME280;30159;49.316;8.558;2023-03-03T12:16:54;100942.28;;;7.93;71.63
44457;BME280;30159;49.316;8.558;2023-03-03T12:19:29;100929.31;;;8.07;72.05
44457;BME280;30159;49.316;8.558;2023-03-03T12:22:18;100931.41;;;8.27;71.44
44457;BME280;30159;49.316;8.558;2023-03-03T12:25:02;100924.44;;;8.26;70.91
44457;BME280;30159;49.316;8.558;2023-03-03T12:27:34;100927.59;;;8.22;70.85
44457;BME280;30159;49.316;8.558;2023-03-03T12:30:14;100793.72;;;7.26;71.69
44457;BME280;30159;49.316;8.558;2023-03-03T12:32:53;100925.47;;;8.24;71.60
44457;BME280;30159;49.316;8.558;2023-03-03T12:35:30;100911.41;;;8.39;71.45
44457;BME280;30159;49.316;8.558;2023-03-03T12:38:05;100917.47;;;8.30;71.50
44457;BME280;30159;49.316;8.558;2023-03-03T12:40:39;100915.25;;;8.43;70.88
44457;BME280;30159;49.316;8.558;2023-03-03T12:43:27;100916.94;;;8.50;70.46
44457;BME280;30159;49.316;8.558;2023-03-03T12:46:03;100898.66;;;8.52;71.63
44457;BME280;30159;49.316;8.558;2023-03-03T12:48:39;100906.88;;;8.67;71.03
44457;BME280;30159;49.316;8.558;2023-03-03T12:51:14;100847.88;;;8.55;69.48
44457;BME280;30159;49.316;8.558;2023-03-03T12:56:55;100887.41;;;8.82;69.49
44457;BME280;30159;49.316;8.558;2023-03-03T12:59:30;100886.50;;;8.71;69.51
44457;BME280;30159;49.316;8.558;2023-03-03T13:02:18;100860.63;;;8.65;69.38
44457;BME280;30159;49.316;8.558;2023-03-03T13:04:51;100885.56;;;8.88;69.95
44457;BME280;30159;49.316;8.558;2023-03-03T13:07:25;100871.44;;;9.02;68.84
44457;BME280;30159;49.316;8.558;2023-03-03T13:10:03;100877.03;;;8.96;69.09
44457;BME280;30159;49.316;8.558;2023-03-03T13:12:39;100880.19;;;9.25;68.79
44457;BME280;30159;49.316;8.558;2023-03-03T13:15:14;100881.25;;;9.19;68.01
44457;BME280;30159;49.316;8.558;2023-03-03T13:17:47;100835.38;;;8.71;68.30
44457;BME280;30159;49.316;8.558;2023-03-03T13:20:24;100883.81;;;9.03;68.70
44457;BME280;30159;49.316;8.558;2023-03-03T13:23:00;100873.84;;;9.04;68.74
44457;BME280;30159;49.316;8.558;2023-03-03T13:25:49;100877.91;;;9.06;69.07